createdAt,value
2022-10-23T00:00:55.028Z,81.68
2022-10-23T00:03:28.541Z,82.38
2022-10-23T00:06:04.869Z,82.03
2022-10-23T00:08:38.546Z,81.20
2022-10-23T00:13:46.812Z,78.05
2022-10-23T00:16:21.685Z,80.38
2022-10-23T00:18:55.193Z,76.43
2022-10-23T00:21:28.991Z,83.88
2022-10-23T00:24:02.547Z,80.72
2022-10-23T00:29:10.254Z,77.70
2022-10-23T00:31:45.147Z,82.95
2022-10-23T00:34:19.599Z,73.65
2022-10-23T00:36:53.017Z,74.13
2022-10-23T00:39:26.549Z,77.30
2022-10-23T00:42:00.023Z,76.65
2022-10-23T00:45:13.931Z,80.93
2022-10-23T00:47:49.180Z,75.65
2022-10-23T00:50:26.551Z,79.30
2022-10-23T00:53:03.464Z,88.55
2022-10-23T00:55:38.449Z,78.95
2022-10-23T00:58:12.396Z,72.63
2022-10-23T01:00:48.269Z,83.90
2022-10-23T01:03:26.780Z,77.72
2022-10-23T01:06:10.556Z,77.85
2022-10-23T01:08:53.686Z,75.05
2022-10-23T01:11:34.975Z,71.18
2022-10-23T01:14:25.724Z,78.25
2022-10-23T01:17:18.739Z,70.03
2022-10-23T01:20:12.505Z,77.03
2022-10-23T01:23:24.617Z,71.32
2022-10-23T01:26:12.274Z,71.05
2022-10-23T01:28:54.767Z,67.20
2022-10-23T01:31:35.100Z,63.17
2022-10-23T01:34:14.963Z,71.90
2022-10-23T01:36:53.729Z,72.43
2022-10-23T01:39:34.077Z,70.22
2022-10-23T01:42:14.289Z,73.15
2022-10-23T01:44:55.135Z,70.20
2022-10-23T01:47:32.570Z,62.05
2022-10-23T01:50:14.984Z,59.20
2022-10-23T01:52:51.899Z,65.28
2022-10-23T01:55:27.451Z,64.20
2022-10-23T01:58:04.011Z,69.25
2022-10-23T02:00:54.131Z,60.53
2022-10-23T02:06:06.166Z,64.15
2022-10-23T02:08:42.700Z,69.82
2022-10-23T02:11:18.639Z,69.43
2022-10-23T02:13:59.256Z,67.28
2022-10-23T02:16:39.931Z,74.03
2022-10-23T02:19:22.649Z,68.75
2022-10-23T02:22:03.198Z,71.45
2022-10-23T02:24:44.044Z,65.80
2022-10-23T02:27:25.527Z,66.70
2022-10-23T02:30:12.957Z,67.85
2022-10-23T02:32:50.578Z,69.65
2022-10-23T02:35:27.717Z,67.55
2022-10-23T02:38:31.543Z,65.68
2022-10-23T02:41:47.521Z,64.80
2022-10-23T02:44:38.676Z,60.38
2022-10-23T02:47:22.837Z,61.28
2022-10-23T02:50:08.536Z,57.08
2022-10-23T02:52:54.974Z,57.17
2022-10-23T02:55:46.202Z,68.40
2022-10-23T02:58:28.025Z,56.47
2022-10-23T03:01:12.966Z,52.78
2022-10-23T03:03:49.956Z,47.40
2022-10-23T03:06:28.118Z,57.55
2022-10-23T03:09:13.839Z,46.30
2022-10-23T03:11:47.535Z,50.38
2022-10-23T03:14:21.149Z,52.33
2022-10-23T03:16:58.439Z,52.47
2022-10-23T03:19:32.669Z,48.00
2022-10-23T03:22:10.840Z,52.30
2022-10-23T03:24:44.509Z,47.75
2022-10-23T03:29:51.120Z,49.83
2022-10-23T03:32:25.682Z,44.22
2022-10-23T03:34:59.090Z,49.60
2022-10-23T03:37:34.144Z,46.85
2022-10-23T03:40:09.548Z,45.67
2022-10-23T03:42:43.051Z,49.85
2022-10-23T03:45:19.718Z,48.40
2022-10-23T03:47:54.554Z,48.42
2022-10-23T03:50:27.993Z,47.67
2022-10-23T03:53:04.505Z,45.13
2022-10-23T03:55:40.412Z,46.35
2022-10-23T03:58:13.932Z,46.25
2022-10-23T04:00:47.427Z,47.83
2022-10-23T04:03:20.927Z,45.83
2022-10-23T04:05:54.358Z,47.35
2022-10-23T04:08:33.305Z,49.08
2022-10-23T04:11:09.240Z,57.05
2022-10-23T04:13:50.954Z,49.35
2022-10-23T04:16:25.353Z,48.95
2022-10-23T04:19:01.427Z,51.97
2022-10-23T04:21:43.475Z,52.65
2022-10-23T04:24:20.047Z,49.58
2022-10-23T04:26:53.649Z,47.38
2022-10-23T04:29:29.559Z,50.22
2022-10-23T04:32:03.682Z,51.75
2022-10-23T04:34:37.193Z,49.30
2022-10-23T04:39:46.351Z,43.72
2022-10-23T04:42:20.993Z,50.90
2022-10-23T04:47:27.780Z,44.88
2022-10-23T04:50:05.078Z,49.50
2022-10-23T04:52:57.774Z,41.95
2022-10-23T04:55:32.735Z,48.40
2022-10-23T04:58:22.292Z,46.65
2022-10-23T05:00:57.844Z,45.83
2022-10-23T05:03:32.814Z,43.60
2022-10-23T05:06:07.067Z,59.05
2022-10-23T05:08:49.678Z,42.42
2022-10-23T05:11:27.656Z,43.17
2022-10-23T05:14:01.310Z,41.83
2022-10-23T05:16:41.048Z,41.15
2022-10-23T05:19:24.443Z,41.80
2022-10-23T05:21:59.061Z,35.30
2022-10-23T05:24:38.163Z,42.00
2022-10-23T05:27:13.092Z,44.25
2022-10-23T05:29:48.096Z,41.45
2022-10-23T05:32:27.407Z,43.40
2022-10-23T05:35:02.947Z,45.67
2022-10-23T05:37:39.769Z,38.55
2022-10-23T05:40:19.027Z,42.50
2022-10-23T05:42:54.758Z,46.28
2022-10-23T05:45:38.079Z,49.22
2022-10-23T05:48:34.809Z,50.47
2022-10-23T05:51:27.504Z,45.47
2022-10-23T05:54:21.183Z,47.13
2022-10-23T05:57:02.895Z,43.88
2022-10-23T05:59:42.808Z,42.05
2022-10-23T06:02:28.764Z,50.85
2022-10-23T06:05:14.078Z,45.22
2022-10-23T06:08:08.800Z,44.13
2022-10-23T06:10:43.286Z,48.33
2022-10-23T06:13:18.300Z,47.78
2022-10-23T06:18:29.189Z,49.80
2022-10-23T06:21:08.367Z,51.58
2022-10-23T06:23:43.325Z,44.70
2022-10-23T06:26:22.646Z,44.42
2022-10-23T06:29:06.930Z,43.35
2022-10-23T06:34:15.551Z,43.33
2022-10-23T06:36:49.044Z,39.53
2022-10-23T06:39:41.931Z,44.85
2022-10-23T06:42:21.539Z,48.92
2022-10-23T06:45:04.763Z,42.67
2022-10-23T06:47:48.273Z,41.45
2022-10-23T06:50:42.713Z,46.33
2022-10-23T06:53:24.874Z,38.22
2022-10-23T06:56:09.368Z,50.75
2022-10-23T06:58:43.975Z,41.90
2022-10-23T07:01:21.338Z,47.40
2022-10-23T07:03:56.443Z,54.88
2022-10-23T07:06:32.816Z,46.53
2022-10-23T07:12:00.633Z,46.88
2022-10-23T07:14:43.649Z,48.45
2022-10-23T07:17:17.473Z,52.05
2022-10-23T07:19:52.684Z,52.65
2022-10-23T07:22:26.457Z,51.10
2022-10-23T07:25:14.029Z,47.88
2022-10-23T07:30:21.086Z,48.17
2022-10-23T07:33:00.941Z,56.80
2022-10-23T07:36:02.245Z,47.25
2022-10-23T07:38:36.588Z,41.58
2022-10-23T07:41:12.712Z,49.25
2022-10-23T07:43:46.461Z,35.35
2022-10-23T07:46:20.799Z,41.13
2022-10-23T07:48:54.857Z,38.63
2022-10-23T07:51:29.937Z,40.13
2022-10-23T07:54:06.736Z,38.85
2022-10-23T07:57:15.033Z,33.60
2022-10-23T08:00:01.676Z,35.45
2022-10-23T08:02:36.626Z,38.35
2022-10-23T08:05:10.752Z,36.83
2022-10-23T08:07:54.711Z,44.07
2022-10-23T08:10:29.204Z,43.03
2022-10-23T08:13:03.045Z,37.08
2022-10-23T08:16:09.740Z,43.92
2022-10-23T08:19:02.611Z,34.72
2022-10-23T08:21:36.553Z,38.47
2022-10-23T08:24:14.119Z,34.78
2022-10-23T08:26:51.241Z,33.25
2022-10-23T08:29:28.332Z,34.38
2022-10-23T08:34:45.082Z,26.13
2022-10-23T08:39:55.008Z,24.80
2022-10-23T08:42:59.117Z,24.35
2022-10-23T08:45:37.880Z,30.00
2022-10-23T08:48:25.278Z,29.20
2022-10-23T08:51:23.317Z,28.90
2022-10-23T08:54:04.423Z,26.92
2022-10-23T08:56:42.477Z,26.75
2022-10-23T08:59:26.444Z,36.70
2022-10-23T09:02:04.063Z,27.63
2022-10-23T09:04:40.722Z,26.10
2022-10-23T09:07:26.749Z,22.67
2022-10-23T09:10:13.558Z,21.90
2022-10-23T09:12:48.743Z,20.05
2022-10-23T09:15:29.612Z,21.80
2022-10-23T09:18:12.706Z,23.23
2022-10-23T09:20:47.789Z,23.55
2022-10-23T09:23:23.475Z,34.50
2022-10-23T09:25:57.263Z,21.00
2022-10-23T09:28:33.912Z,20.23
2022-10-23T09:31:09.082Z,22.25
2022-10-23T09:33:42.890Z,28.52
2022-10-23T09:36:23.615Z,23.90
2022-10-23T09:38:59.799Z,25.90
2022-10-23T09:41:38.567Z,24.10
2022-10-23T09:44:21.224Z,25.17
2022-10-23T09:46:57.118Z,28.42
2022-10-23T09:49:32.554Z,22.42
2022-10-23T09:52:23.411Z,25.98
2022-10-23T09:54:59.770Z,23.73
2022-10-23T09:57:38.472Z,26.02
2022-10-23T10:00:22.262Z,25.70
2022-10-23T10:03:03.169Z,21.85
2022-10-23T10:06:22.523Z,24.75
2022-10-23T10:09:02.204Z,27.48
2022-10-23T10:11:42.871Z,28.70
2022-10-23T10:15:00.402Z,28.98
2022-10-23T10:17:45.186Z,26.67
2022-10-23T10:20:50.819Z,21.67
2022-10-23T10:23:34.749Z,36.70
2022-10-23T10:26:26.778Z,47.20
2022-10-23T10:29:14.947Z,29.35
2022-10-23T10:32:00.562Z,23.48
2022-10-23T10:34:52.883Z,24.85
2022-10-23T10:37:32.828Z,24.48
2022-10-23T10:40:15.633Z,27.15
2022-10-23T10:43:14.703Z,26.20
2022-10-23T10:45:56.164Z,25.15
2022-10-23T10:48:45.160Z,26.70
2022-10-23T10:51:31.902Z,28.02
2022-10-23T10:54:17.988Z,26.85
2022-10-23T10:56:55.804Z,28.25
2022-10-23T10:59:33.076Z,24.38
2022-10-23T11:02:21.128Z,34.47
2022-10-23T11:05:02.201Z,23.95
2022-10-23T11:07:43.753Z,22.58
2022-10-23T11:10:19.560Z,20.35
2022-10-23T11:12:55.056Z,19.63
2022-10-23T11:15:37.733Z,23.58
2022-10-23T11:18:22.195Z,15.02
2022-10-23T11:21:27.850Z,16.60
2022-10-23T11:24:49.080Z,13.75
2022-10-23T11:27:41.469Z,15.80
2022-10-23T11:30:30.094Z,15.95
2022-10-23T11:33:46.785Z,12.82
2022-10-23T11:36:41.307Z,19.35
2022-10-23T11:39:21.328Z,17.73
2022-10-23T11:41:58.513Z,16.65
2022-10-23T11:44:44.179Z,17.60
2022-10-23T11:47:39.657Z,16.92
2022-10-23T11:50:25.059Z,17.33
2022-10-23T11:53:24.411Z,22.42
2022-10-23T11:56:04.459Z,17.13
2022-10-23T11:58:48.505Z,16.50
2022-10-23T12:01:32.491Z,17.98
2022-10-23T12:04:22.423Z,15.73
2022-10-23T12:07:04.205Z,20.35
2022-10-23T12:09:42.347Z,16.80
2022-10-23T12:12:25.359Z,18.83
2022-10-23T12:15:20.201Z,19.13
2022-10-23T12:17:58.811Z,16.88
2022-10-23T12:20:53.146Z,17.63
2022-10-23T12:24:01.725Z,19.85
2022-10-23T12:26:50.936Z,24.95
2022-10-23T12:29:42.204Z,22.13
2022-10-23T12:32:34.603Z,25.15
2022-10-23T12:35:26.005Z,24.65
2022-10-23T12:38:13.870Z,25.50
2022-10-23T12:40:54.148Z,26.30
2022-10-23T12:43:30.423Z,25.35
2022-10-23T12:46:26.495Z,25.75
2022-10-23T12:49:05.156Z,64.10
2022-10-23T12:51:38.683Z,28.77
2022-10-23T12:56:55.426Z,19.52
2022-10-23T12:59:34.779Z,22.00
2022-10-23T13:02:15.705Z,22.00
2022-10-23T13:04:52.264Z,21.00
2022-10-23T13:07:32.732Z,24.42
2022-10-23T13:10:15.360Z,26.15
2022-10-23T13:12:59.840Z,21.02
2022-10-23T13:15:39.991Z,18.77
2022-10-23T13:18:15.621Z,19.17
2022-10-23T13:23:35.393Z,22.70
2022-10-23T13:26:28.685Z,19.05
2022-10-23T13:29:07.516Z,23.17
2022-10-23T13:31:43.325Z,20.65
2022-10-23T13:34:25.186Z,19.27
2022-10-23T13:37:04.431Z,16.73
2022-10-23T13:39:37.939Z,18.65
2022-10-23T13:42:14.922Z,16.55
2022-10-23T13:44:51.912Z,19.55
2022-10-23T13:47:25.433Z,18.80
2022-10-23T13:52:33.380Z,18.17
2022-10-23T13:55:18.774Z,19.40
2022-10-23T13:57:52.365Z,28.90
2022-10-23T14:02:59.070Z,15.90
2022-10-23T14:08:07.641Z,15.80
2022-10-23T14:10:41.071Z,16.98
2022-10-23T14:13:14.762Z,20.98
2022-10-23T14:15:54.884Z,16.83
2022-10-23T14:18:30.715Z,17.58
2022-10-23T14:21:05.985Z,19.25
2022-10-23T14:23:42.617Z,19.20
2022-10-23T14:26:19.980Z,15.75
2022-10-23T14:29:02.305Z,20.85
2022-10-23T14:31:50.353Z,20.20
2022-10-23T14:34:27.725Z,20.90
2022-10-23T14:37:09.257Z,21.40
2022-10-23T14:39:50.654Z,23.48
2022-10-23T14:42:24.628Z,18.90
2022-10-23T14:45:03.539Z,22.85
2022-10-23T14:47:37.213Z,20.40
2022-10-23T14:50:20.476Z,19.92
2022-10-23T14:52:54.755Z,18.13
2022-10-23T14:55:35.906Z,20.65
2022-10-23T14:58:09.941Z,81.65
2022-10-23T15:00:43.612Z,22.73
2022-10-23T15:03:23.004Z,23.30
2022-10-23T15:05:57.338Z,24.58
2022-10-23T15:08:34.344Z,19.48
2022-10-23T15:11:12.646Z,20.85
2022-10-23T15:13:46.401Z,19.30
2022-10-23T15:16:25.341Z,24.67
2022-10-23T15:18:59.424Z,19.17
2022-10-23T15:21:33.139Z,22.95
2022-10-23T15:26:43.393Z,19.98
2022-10-23T15:29:17.827Z,23.38
2022-10-23T15:31:55.236Z,25.65
2022-10-23T15:34:30.605Z,23.23
2022-10-23T15:37:12.478Z,26.83
2022-10-23T15:39:46.471Z,27.52
2022-10-23T15:42:21.486Z,30.98
2022-10-23T15:44:57.857Z,28.60
2022-10-23T15:47:31.542Z,30.48
2022-10-23T15:50:05.702Z,28.55
2022-10-23T15:52:41.552Z,29.50
2022-10-23T15:55:15.421Z,31.92
2022-10-23T16:00:23.755Z,30.05
2022-10-23T16:03:06.220Z,30.48
2022-10-23T16:05:45.612Z,31.65
2022-10-23T16:08:19.406Z,26.35
2022-10-23T16:10:53.522Z,31.52
2022-10-23T16:13:29.007Z,31.83
2022-10-23T16:16:05.528Z,28.48
2022-10-23T16:18:39.653Z,29.50
2022-10-23T16:21:19.973Z,35.05
2022-10-23T16:23:58.591Z,33.60
2022-10-23T16:26:32.458Z,34.80
2022-10-23T16:29:09.795Z,46.10
2022-10-23T16:31:43.827Z,56.25
2022-10-23T16:34:17.956Z,57.25
2022-10-23T16:36:51.651Z,54.42
2022-10-23T16:39:44.944Z,64.25
2022-10-23T16:42:58.514Z,54.03
2022-10-23T16:45:40.210Z,59.53
2022-10-23T16:48:13.700Z,69.40
2022-10-23T16:50:47.130Z,79.38
2022-10-23T16:53:23.294Z,71.82
2022-10-23T16:56:01.053Z,69.70
2022-10-23T16:58:35.442Z,70.53
2022-10-23T17:01:12.625Z,84.15
2022-10-23T17:03:48.468Z,74.07
2022-10-23T17:06:23.706Z,106.18
2022-10-23T17:08:58.189Z,96.63
2022-10-23T17:11:58.702Z,87.75
2022-10-23T17:17:46.991Z,77.28
2022-10-23T17:20:23.353Z,82.90
2022-10-23T17:22:58.137Z,83.60
2022-10-23T17:25:34.285Z,90.85
2022-10-23T17:28:11.367Z,91.47
2022-10-23T17:30:47.844Z,95.18
2022-10-23T17:33:28.409Z,103.93
2022-10-23T17:36:07.004Z,95.93
2022-10-23T17:38:41.834Z,114.40
2022-10-23T17:41:21.549Z,110.60
2022-10-23T17:44:00.255Z,111.80
2022-10-23T17:46:34.045Z,100.68
2022-10-23T17:49:12.661Z,93.43
2022-10-23T17:51:46.438Z,99.40
2022-10-23T17:56:57.546Z,87.63
2022-10-23T17:59:35.437Z,92.70
2022-10-23T18:02:09.898Z,86.25
2022-10-23T18:04:45.259Z,82.20
2022-10-23T18:07:20.192Z,75.82
2022-10-23T18:10:06.027Z,70.15
2022-10-23T18:12:42.384Z,76.18
2022-10-23T18:15:16.924Z,75.90
2022-10-23T18:17:50.454Z,77.45
2022-10-23T18:20:29.139Z,75.90
2022-10-23T18:23:05.301Z,76.75
2022-10-23T18:25:46.139Z,76.68
2022-10-23T18:28:22.032Z,78.35
2022-10-23T18:30:57.187Z,76.68
2022-10-23T18:33:31.099Z,73.40
2022-10-23T18:36:14.229Z,74.90
2022-10-23T18:38:48.723Z,80.43
2022-10-23T18:41:28.306Z,76.10
2022-10-23T18:44:02.014Z,83.43
2022-10-23T18:46:35.857Z,87.13
2022-10-23T18:49:09.485Z,77.93
2022-10-23T18:51:44.610Z,81.65
2022-10-23T18:54:21.196Z,84.45
2022-10-23T18:56:54.827Z,81.70
2022-10-23T19:02:01.958Z,77.68
2022-10-23T19:04:36.519Z,69.45
2022-10-23T19:07:22.253Z,76.00
2022-10-23T19:09:57.042Z,55.75
2022-10-23T19:12:30.645Z,63.88
2022-10-23T19:15:04.350Z,59.33
2022-10-23T19:20:20.251Z,55.88
2022-10-23T19:22:56.860Z,56.70
2022-10-23T19:25:34.173Z,59.45
2022-10-23T19:28:07.723Z,64.63
2022-10-23T19:30:47.080Z,58.47
2022-10-23T19:33:24.738Z,75.95
2022-10-23T19:36:01.220Z,75.07
2022-10-23T19:38:40.456Z,75.55
2022-10-23T19:41:18.502Z,66.32
2022-10-23T19:43:51.926Z,71.03
2022-10-23T19:46:26.165Z,61.53
2022-10-23T19:48:59.656Z,81.10
2022-10-23T19:51:33.514Z,60.53
2022-10-23T19:54:09.948Z,62.30
2022-10-23T19:56:43.429Z,63.22
2022-10-23T19:59:17.028Z,70.53
2022-10-23T20:01:50.827Z,65.80
2022-10-23T20:04:24.413Z,66.28
2022-10-23T20:07:01.011Z,67.40
2022-10-23T20:09:36.170Z,70.30
2022-10-23T20:12:09.909Z,67.80
2022-10-23T20:17:19.031Z,73.22
2022-10-23T20:19:53.470Z,63.13
2022-10-23T20:22:28.391Z,66.70
2022-10-23T20:25:06.345Z,68.07
2022-10-23T20:27:42.883Z,60.00
2022-10-23T20:30:18.977Z,59.35
2022-10-23T20:32:52.470Z,59.67
2022-10-23T20:35:25.902Z,61.60
2022-10-23T20:37:59.398Z,56.17
2022-10-23T20:40:34.311Z,61.55
2022-10-23T20:43:07.799Z,58.72
2022-10-23T20:45:41.299Z,61.38
2022-10-23T20:48:14.697Z,55.67
2022-10-23T20:50:48.124Z,52.78
2022-10-23T20:53:21.538Z,52.60
2022-10-23T20:55:56.486Z,49.78
2022-10-23T20:58:29.942Z,52.47
2022-10-23T21:01:04.992Z,53.80
2022-10-23T21:03:38.921Z,52.05
2022-10-23T21:06:14.541Z,48.50
2022-10-23T21:08:48.480Z,50.42
2022-10-23T21:11:23.409Z,49.90
2022-10-23T21:13:59.983Z,50.45
2022-10-23T21:16:35.638Z,50.30
2022-10-23T21:19:10.247Z,49.60
2022-10-23T21:21:43.913Z,48.85
2022-10-23T21:26:52.653Z,48.42
2022-10-23T21:29:28.829Z,53.70
2022-10-23T21:32:02.742Z,48.92
2022-10-23T21:34:36.653Z,49.05
2022-10-23T21:37:14.531Z,49.10
2022-10-23T21:39:48.420Z,44.00
2022-10-23T21:42:23.509Z,49.85
2022-10-23T21:44:57.015Z,47.17
2022-10-23T21:47:30.429Z,48.88
2022-10-23T21:50:04.099Z,45.83
2022-10-23T21:55:11.933Z,45.37
2022-10-23T21:57:46.972Z,45.63
2022-10-23T22:00:20.529Z,46.42
2022-10-23T22:02:56.839Z,46.50
2022-10-23T22:05:30.253Z,44.28
2022-10-23T22:08:03.677Z,42.30
2022-10-23T22:10:37.164Z,49.08
2022-10-23T22:13:12.025Z,44.90
2022-10-23T22:18:24.330Z,44.25
2022-10-23T22:21:04.338Z,44.75
2022-10-23T22:23:38.368Z,46.58
2022-10-23T22:26:23.245Z,45.03
2022-10-23T22:29:00.243Z,50.05
2022-10-23T22:31:35.073Z,49.40
2022-10-23T22:34:25.118Z,45.40
2022-10-23T22:37:02.821Z,43.88
2022-10-23T22:40:04.880Z,43.78
2022-10-23T22:42:41.189Z,45.53
2022-10-23T22:47:49.568Z,45.25
2022-10-23T22:50:26.008Z,45.35
2022-10-23T22:52:59.498Z,44.33
2022-10-23T22:55:33.063Z,46.63
2022-10-23T22:58:09.676Z,49.38
2022-10-23T23:00:45.000Z,47.00
2022-10-23T23:03:18.777Z,44.63
2022-10-23T23:08:25.970Z,50.55
2022-10-23T23:11:02.129Z,41.10
2022-10-23T23:13:36.296Z,48.67
2022-10-23T23:16:20.403Z,44.03
2022-10-23T23:21:30.505Z,44.00
2022-10-23T23:24:06.578Z,38.45
2022-10-23T23:26:40.064Z,40.60
2022-10-23T23:29:14.168Z,45.55
2022-10-23T23:31:49.160Z,43.80
2022-10-23T23:34:22.857Z,45.17
2022-10-23T23:36:56.449Z,47.22
2022-10-23T23:39:30.133Z,42.95
2022-10-23T23:42:06.173Z,47.33
2022-10-23T23:44:50.212Z,42.13
2022-10-23T23:47:35.187Z,41.22
2022-10-23T23:50:11.523Z,39.50
2022-10-23T23:52:48.408Z,43.00
2022-10-23T23:55:21.991Z,40.38
2022-10-23T23:58:05.697Z,41.72
